sensor_id;sensor_type;location;lat;lon;timestamp;pressure;altitude;pressure_sealevel;temperature;humidity
77639;BME280;66802;52.574;14.398;2024-02-04T04:02:30;101606.69;;;6.00;88.83
77639;BME280;66802;52.574;14.398;2024-02-04T04:04:55;101596.16;;;5.97;88.98
77639;BME280;66802;52.574;14.398;2024-02-04T04:07:21;101614.84;;;5.99;89.06
77639;BME280;66802;52.574;14.398;2024-02-04T04:09:46;101603.44;;;5.95;89.40
77639;BME280;66802;52.574;14.398;2024-02-04T04:12:12;101598.94;;;5.96;89.66
77639;BME280;66802;52.574;14.398;2024-02-04T04:14:37;101589.09;;;5.96;89.64
77639;BME280;66802;52.574;14.398;2024-02-04T04:17:03;101586.22;;;5.99;89.38
77639;BME280;66802;52.574;14.398;2024-02-04T04:19:28;101583.31;;;5.90;90.04
77639;BME280;66802;52.574;14.398;2024-02-04T04:21:54;101583.97;;;5.93;90.08
77639;BME280;66802;52.574;14.398;2024-02-04T04:24:19;101589.31;;;5.93;90.53
77639;BME280;66802;52.574;14.398;2024-02-04T04:26:47;101581.38;;;5.92;90.46
77639;BME280;66802;52.574;14.398;2024-02-04T04:29:12;101600.34;;;5.89;90.58
77639;BME280;66802;52.574;14.398;2024-02-04T04:31:38;101602.16;;;5.88;90.87
77639;BME280;66802;52.574;14.398;2024-02-04T04:34:03;101603.59;;;5.94;90.82
77639;BME280;66802;52.574;14.398;2024-02-04T04:36:29;101596.41;;;5.94;91.01
77639;BME280;66802;52.574;14.398;2024-02-04T04:38:54;101585.69;;;5.94;91.22
77639;BME280;66802;52.574;14.398;2024-02-04T04:41:20;101593.59;;;5.96;90.98
77639;BME280;66802;52.574;14.398;2024-02-04T04:43:45;101589.22;;;5.95;91.37
77639;BME280;66802;52.574;14.398;2024-02-04T04:46:11;101591.91;;;5.95;91.45
77639;BME280;66802;52.574;14.398;2024-02-04T04:48:36;101585.78;;;5.93;91.14
77639;BME280;66802;52.574;14.398;2024-02-04T04:51:02;101584.59;;;5.97;91.50
77639;BME280;66802;52.574;14.398;2024-02-04T04:53:27;101577.75;;;5.93;91.10
77639;BME280;66802;52.574;14.398;2024-02-04T04:55:53;101567.22;;;5.90;90.76
77639;BME280;66802;52.574;14.398;2024-02-04T04:58:18;101569.03;;;5.89;90.82
77639;BME280;66802;52.574;14.398;2024-02-04T05:00:44;101561.16;;;5.86;90.50
77639;BME280;66802;52.574;14.398;2024-02-04T05:03:09;101557.53;;;5.87;90.56
77639;BME280;66802;52.574;14.398;2024-02-04T05:05:35;101558.16;;;5.78;91.01
77639;BME280;66802;52.574;14.398;2024-02-04T05:08:00;101551.28;;;5.74;90.99
77639;BME280;66802;52.574;14.398;2024-02-04T05:10:26;101559.31;;;5.74;90.72
77639;BME280;66802;52.574;14.398;2024-02-04T05:12:51;101555.91;;;5.72;90.48
77639;BME280;66802;52.574;14.398;2024-02-04T05:15:17;101552.38;;;5.71;90.40
77639;BME280;66802;52.574;14.398;2024-02-04T05:17:42;101554.47;;;5.66;90.38
77639;BME280;66802;52.574;14.398;2024-02-04T05:20:08;101546.13;;;5.58;90.76
77639;BME280;66802;52.574;14.398;2024-02-04T05:22:34;101561.22;;;5.59;90.58
77639;BME280;66802;52.574;14.398;2024-02-04T05:24:59;101556.63;;;5.61;90.71
77639;BME280;66802;52.574;14.398;2024-02-04T05:27:25;101550.09;;;5.65;90.59
77639;BME280;66802;52.574;14.398;2024-02-04T05:29:51;101554.38;;;5.68;90.62
77639;BME280;66802;52.574;14.398;2024-02-04T05:32:16;101555.53;;;5.64;90.60
77639;BME280;66802;52.574;14.398;2024-02-04T05:34:42;101561.03;;;5.62;90.79
77639;BME280;66802;52.574;14.398;2024-02-04T05:37:07;101561.31;;;5.58;90.85
77639;BME280;66802;52.574;14.398;2024-02-04T05:39:32;101555.19;;;5.56;91.00
77639;BME280;66802;52.574;14.398;2024-02-04T05:41:58;101557.88;;;5.56;91.13
77639;BME280;66802;52.574;14.398;2024-02-04T05:44:23;101549.75;;;5.57;91.53
77639;BME280;66802;52.574;14.398;2024-02-04T05:46:49;101544.59;;;5.54;91.21
77639;BME280;66802;52.574;14.398;2024-02-04T05:49:14;101541.63;;;5.59;91.57
77639;BME280;66802;52.574;14.398;2024-02-04T05:51:41;101541.63;;;5.59;91.26
77639;BME280;66802;52.574;14.398;2024-02-04T05:54:07;101541.72;;;5.57;91.56
77639;BME280;66802;52.574;14.398;2024-02-04T05:56:33;101549.56;;;5.60;91.13
77639;BME280;66802;52.574;14.398;2024-02-04T05:58:59;101545.53;;;5.53;91.63
77639;BME280;66802;52.574;14.398;2024-02-04T06:01:24;101539.84;;;5.45;91.90
77639;BME280;66802;52.574;14.398;2024-02-04T06:03:50;101535.34;;;5.45;92.02
77639;BME280;66802;52.574;14.398;2024-02-04T06:06:16;101537.94;;;5.47;92.12
77639;BME280;66802;52.574;14.398;2024-02-04T06:08:45;101534.41;;;5.46;92.03
77639;BME280;66802;52.574;14.398;2024-02-04T06:11:11;101531.44;;;5.51;91.88
77639;BME280;66802;52.574;14.398;2024-02-04T06:13:42;101528.53;;;5.54;92.24
77639;BME280;66802;52.574;14.398;2024-02-04T06:16:08;101533.78;;;5.56;92.18
77639;BME280;66802;52.574;14.398;2024-02-04T06:18:37;101537.66;;;5.52;92.30
77639;BME280;66802;52.574;14.398;2024-02-04T06:21:04;101530.25;;;5.55;91.85
77639;BME280;66802;52.574;14.398;2024-02-04T06:23:29;101537.97;;;5.60;91.44
77639;BME280;66802;52.574;14.398;2024-02-04T06:25:55;101543.53;;;5.57;91.57
77639;BME280;66802;52.574;14.398;2024-02-04T06:28:20;101538.59;;;5.50;91.68
77639;BME280;66802;52.574;14.398;2024-02-04T06:30:46;101537.75;;;5.50;92.11
77639;BME280;66802;52.574;14.398;2024-02-04T06:33:11;101536.03;;;5.49;91.84
77639;BME280;66802;52.574;14.398;2024-02-04T06:35:36;101541.56;;;5.46;92.22
77639;BME280;66802;52.574;14.398;2024-02-04T06:38:02;101539.84;;;5.45;92.17
77639;BME280;66802;52.574;14.398;2024-02-04T06:40:27;101561.69;;;5.39;92.20
77639;BME280;66802;52.574;14.398;2024-02-04T06:42:53;101575.25;;;5.36;92.78
77639;BME280;66802;52.574;14.398;2024-02-04T06:45:18;101554.81;;;5.35;93.33
77639;BME280;66802;52.574;14.398;2024-02-04T06:47:44;101553.84;;;5.36;93.13
77639;BME280;66802;52.574;14.398;2024-02-04T06:50:11;101552.03;;;5.36;93.70
77639;BME280;66802;52.574;14.398;2024-02-04T06:52:41;101541.88;;;5.41;93.72
77639;BME280;66802;52.574;14.398;2024-02-04T06:55:08;101532.78;;;5.44;93.35
77639;BME280;66802;52.574;14.398;2024-02-04T06:57:34;101520.81;;;5.49;93.05
77639;BME280;66802;52.574;14.398;2024-02-04T06:59:59;101519.72;;;5.52;92.25
77639;BME280;66802;52.574;14.398;2024-02-04T07:02:25;101519.09;;;5.48;92.14
77639;BME280;66802;52.574;14.398;2024-02-04T07:04:50;101521.69;;;5.50;92.04
77639;BME280;66802;52.574;14.398;2024-02-04T07:07:16;101517.38;;;5.47;91.65
77639;BME280;66802;52.574;14.398;2024-02-04T07:09:41;101502.38;;;5.45;91.80
77639;BME280;66802;52.574;14.398;2024-02-04T07:12:07;101510.50;;;5.43;91.22
77639;BME280;66802;52.574;14.398;2024-02-04T07:14:32;101510.41;;;5.45;91.25
77639;BME280;66802;52.574;14.398;2024-02-04T07:17:00;101511.16;;;5.47;91.28
77639;BME280;66802;52.574;14.398;2024-02-04T07:19:37;101510.97;;;5.50;91.21
77639;BME280;66802;52.574;14.398;2024-02-04T07:22:03;101519.94;;;5.49;91.21
77639;BME280;66802;52.574;14.398;2024-02-04T07:24:58;101514.06;;;5.57;90.56
77639;BME280;66802;52.574;14.398;2024-02-04T07:27:49;101504.31;;;5.56;90.37
77639;BME280;66802;52.574;14.398;2024-02-04T07:32:48;101521.59;;;5.64;90.59
77639;BME280;66802;52.574;14.398;2024-02-04T07:35:22;101524.16;;;5.66;90.33
77639;BME280;66802;52.574;14.398;2024-02-04T07:37:48;101523.88;;;5.70;90.59
77639;BME280;66802;52.574;14.398;2024-02-04T07:40:16;101509.28;;;5.74;90.38
77639;BME280;66802;52.574;14.398;2024-02-04T07:42:42;101512.72;;;5.76;89.89
77639;BME280;66802;52.574;14.398;2024-02-04T07:45:08;101510.25;;;5.86;89.33
77639;BME280;66802;52.574;14.398;2024-02-04T07:48:02;101501.38;;;5.85;89.57
77639;BME280;66802;52.574;14.398;2024-02-04T07:50:39;101514.50;;;5.90;89.80
77639;BME280;66802;52.574;14.398;2024-02-04T07:53:42;101485.13;;;5.89;89.49
77639;BME280;66802;52.574;14.398;2024-02-04T07:56:55;101499.69;;;5.97;89.48
77639;BME280;66802;52.574;14.398;2024-02-04T07:59:36;101490.59;;;6.00;89.32
77639;BME280;66802;52.574;14.398;2024-02-04T08:02:43;101508.19;;;6.04;89.31
77639;BME280;66802;52.574;14.398;2024-02-04T08:05:36;101500.88;;;6.06;89.50
77639;BME280;66802;52.574;14.398;2024-02-04T08:08:08;101498.00;;;6.09;89.57
77639;BME280;66802;52.574;14.398;2024-02-04T08:11:01;101486.31;;;6.10;89.70
77639;BME280;66802;52.574;14.398;2024-02-04T08:14:06;101476.13;;;6.15;89.41
77639;BME280;66802;52.574;14.398;2024-02-04T08:20:08;101464.22;;;6.19;89.51
77639;BME280;66802;52.574;14.398;2024-02-04T08:48:41;101454.06;;;6.60;88.10
77639;BME280;66802;52.574;14.398;2024-02-04T10:12:55;101404.97;;;7.54;79.22
77639;BME280;66802;52.574;14.398;2024-02-04T11:58:50;101282.13;;;7.89;74.76
77639;BME280;66802;52.574;14.398;2024-02-04T12:26:25;101263.75;;;8.05;71.00
77639;BME280;66802;52.574;14.398;2024-02-04T12:28:54;101263.63;;;8.07;71.90
77639;BME280;66802;52.574;14.398;2024-02-04T12:35:24;101260.31;;;8.03;71.19
77639;BME280;66802;52.574;14.398;2024-02-04T12:38:30;101260.72;;;7.99;71.57
77639;BME280;66802;52.574;14.398;2024-02-04T12:41:31;101264.13;;;8.01;71.83
77639;BME280;66802;52.574;14.398;2024-02-04T12:43:58;101257.41;;;7.95;71.48
77639;BME280;66802;52.574;14.398;2024-02-04T12:50:01;101269.03;;;7.96;71.38
77639;BME280;66802;52.574;14.398;2024-02-04T13:07:22;101259.13;;;8.07;70.97
77639;BME280;66802;52.574;14.398;2024-02-04T13:21:01;101255.94;;;8.02;71.60
77639;BME280;66802;52.574;14.398;2024-02-04T13:26:33;101262.03;;;8.04;71.01
77639;BME280;66802;52.574;14.398;2024-02-04T13:33:18;101264.50;;;7.96;71.88
77639;BME280;66802;52.574;14.398;2024-02-04T13:35:44;101282.59;;;7.94;71.15
77639;BME280;66802;52.574;14.398;2024-02-04T13:38:16;101278.81;;;7.86;70.97
77639;BME280;66802;52.574;14.398;2024-02-04T13:40:42;101278.94;;;7.84;72.10
77639;BME280;66802;52.574;14.398;2024-02-04T13:43:08;101281.63;;;7.84;72.12
77639;BME280;66802;52.574;14.398;2024-02-04T13:45:34;101279.16;;;7.81;72.54
77639;BME280;66802;52.574;14.398;2024-02-04T13:48:05;101277.00;;;7.75;73.08
77639;BME280;66802;52.574;14.398;2024-02-04T13:50:31;101269.91;;;7.74;71.84
77639;BME280;66802;52.574;14.398;2024-02-04T13:52:56;101263.44;;;7.77;72.37
77639;BME280;66802;52.574;14.398;2024-02-04T13:55:23;101253.53;;;7.77;72.18
77639;BME280;66802;52.574;14.398;2024-02-04T13:57:48;101251.72;;;7.78;72.81
77639;BME280;66802;52.574;14.398;2024-02-04T14:00:14;101249.88;;;7.78;72.95
77639;BME280;66802;52.574;14.398;2024-02-04T14:02:40;101240.22;;;7.76;72.77
77639;BME280;66802;52.574;14.398;2024-02-04T14:05:05;101227.66;;;7.76;72.35
77639;BME280;66802;52.574;14.398;2024-02-04T14:07:31;101239.50;;;7.74;73.17
77639;BME280;66802;52.574;14.398;2024-02-04T14:09:56;101236.44;;;7.78;72.37
77639;BME280;66802;52.574;14.398;2024-02-04T14:12:22;101228.00;;;7.72;72.77
77639;BME280;66802;52.574;14.398;2024-02-04T14:14:49;101240.47;;;7.73;73.14
77639;BME280;66802;52.574;14.398;2024-02-04T14:17:15;101231.78;;;7.69;73.40
77639;BME280;66802;52.574;14.398;2024-02-04T14:19:41;101235.94;;;7.73;72.78
77639;BME280;66802;52.574;14.398;2024-02-04T14:22:06;101244.88;;;7.74;72.62
77639;BME280;66802;52.574;14.398;2024-02-04T14:24:32;101240.81;;;7.68;72.30
77639;BME280;66802;52.574;14.398;2024-02-04T14:26:58;101234.47;;;7.69;72.47
77639;BME280;66802;52.574;14.398;2024-02-04T14:29:25;101233.03;;;7.65;73.55
77639;BME280;66802;52.574;14.398;2024-02-04T14:31:53;101242.91;;;7.64;73.18
77639;BME280;66802;52.574;14.398;2024-02-04T14:34:19;101245.38;;;7.67;72.83
77639;BME280;66802;52.574;14.398;2024-02-04T14:36:44;101239.38;;;7.64;73.06
77639;BME280;66802;52.574;14.398;2024-02-04T14:39:10;101244.03;;;7.62;73.10
77639;BME280;66802;52.574;14.398;2024-02-04T14:41:36;101251.56;;;7.68;72.52
77639;BME280;66802;52.574;14.398;2024-02-04T14:44:02;101242.69;;;7.67;73.04
77639;BME280;66802;52.574;14.398;2024-02-04T14:46:30;101253.56;;;7.66;72.83
77639;BME280;66802;52.574;14.398;2024-02-04T14:48:58;101247.19;;;7.67;73.02
77639;BME280;66802;52.574;14.398;2024-02-04T14:51:26;101246.47;;;7.65;73.41
77639;BME280;66802;52.574;14.398;2024-02-04T14:53:53;101244.25;;;7.59;73.47
77639;BME280;66802;52.574;14.398;2024-02-04T14:56:18;101257.22;;;7.65;72.76
77639;BME280;66802;52.574;14.398;2024-02-04T14:58:55;101250.75;;;7.67;73.45
77639;BME280;66802;52.574;14.398;2024-02-04T15:01:33;101244.88;;;7.62;73.20
77639;BME280;66802;52.574;14.398;2024-02-04T15:04:01;101248.88;;;7.68;72.79
77639;BME280;66802;52.574;14.398;2024-02-04T15:06:27;101249.16;;;7.65;73.34
77639;BME280;66802;52.574;14.398;2024-02-04T15:08:56;101244.75;;;7.64;73.43
77639;BME280;66802;52.574;14.398;2024-02-04T15:11:23;101234.00;;;7.64;73.73
77639;BME280;66802;52.574;14.398;2024-02-04T15:13:48;101240.22;;;7.64;73.17
77639;BME280;66802;52.574;14.398;2024-02-04T15:16:15;101237.66;;;7.63;73.83
77639;BME280;66802;52.574;14.398;2024-02-04T15:18:40;101242.06;;;7.64;73.94
77639;BME280;66802;52.574;14.398;2024-02-04T15:21:06;101241.94;;;7.65;73.08
77639;BME280;66802;52.574;14.398;2024-02-04T15:23:32;101231.19;;;7.65;72.78
77639;BME280;66802;52.574;14.398;2024-02-04T15:26:00;101242.53;;;7.69;73.32
77639;BME280;66802;52.574;14.398;2024-02-04T15:28:27;101238.53;;;7.63;74.21
77639;BME280;66802;52.574;14.398;2024-02-04T15:30:53;101232.28;;;7.63;73.53
77639;BME280;66802;52.574;14.398;2024-02-04T15:33:20;101228.00;;;7.60;73.94
77639;BME280;66802;52.574;14.398;2024-02-04T15:35:46;101234.25;;;7.61;73.59
77639;BME280;66802;52.574;14.398;2024-02-04T15:38:16;101218.00;;;7.62;73.88
77639;BME280;66802;52.574;14.398;2024-02-04T15:40:42;101214.47;;;7.62;73.66
77639;BME280;66802;52.574;14.398;2024-02-04T15:43:10;101215.31;;;7.62;73.53
77639;BME280;66802;52.574;14.398;2024-02-04T15:45:35;101211.78;;;7.62;73.27
77639;BME280;66802;52.574;14.398;2024-02-04T15:48:03;101214.47;;;7.62;73.50
77639;BME280;66802;52.574;14.398;2024-02-04T15:50:30;101214.69;;;7.59;73.85
77639;BME280;66802;52.574;14.398;2024-02-04T15:52:56;101208.97;;;7.63;73.00
77639;BME280;66802;52.574;14.398;2024-02-04T15:55:22;101206.41;;;7.62;73.81
77639;BME280;66802;52.574;14.398;2024-02-04T15:57:52;101213.59;;;7.61;73.46
77639;BME280;66802;52.574;14.398;2024-02-04T16:00:23;101223.03;;;7.67;73.24
77639;BME280;66802;52.574;14.398;2024-02-04T16:02:52;101207.03;;;7.65;73.51
77639;BME280;66802;52.574;14.398;2024-02-04T16:05:20;101208.13;;;7.63;73.41
77639;BME280;66802;52.574;14.398;2024-02-04T16:07:46;101197.59;;;7.60;73.38
77639;BME280;66802;52.574;14.398;2024-02-04T16:10:16;101199.06;;;7.64;73.04
77639;BME280;66802;52.574;14.398;2024-02-04T16:12:59;101204.22;;;7.67;73.38
77639;BME280;66802;52.574;14.398;2024-02-04T16:15:40;101186.75;;;7.61;73.76
77639;BME280;66802;52.574;14.398;2024-02-04T16:18:14;101190.91;;;7.65;73.14
77639;BME280;66802;52.574;14.398;2024-02-04T16:20:41;101192.59;;;7.66;72.91
77639;BME280;66802;52.574;14.398;2024-02-04T16:23:22;101187.09;;;7.68;73.36
77639;BME280;66802;52.574;14.398;2024-02-04T16:26:13;101191.13;;;7.62;73.70
77639;BME280;66802;52.574;14.398;2024-02-04T16:28:58;101189.53;;;7.60;73.63
77639;BME280;66802;52.574;14.398;2024-02-04T16:34:26;101197.88;;;7.57;74.17
77639;BME280;66802;52.574;14.398;2024-02-04T16:37:11;101185.66;;;7.64;74.10
77639;BME280;66802;52.574;14.398;2024-02-04T17:15:46;101160.47;;;7.65;73.52
77639;BME280;66802;52.574;14.398;2024-02-04T17:32:16;101155.84;;;7.67;73.50
77639;BME280;66802;52.574;14.398;2024-02-04T17:34:52;101159.38;;;7.67;73.78
77639;BME280;66802;52.574;14.398;2024-02-04T17:37:21;101154.13;;;7.66;73.59
77639;BME280;66802;52.574;14.398;2024-02-04T17:55:52;101147.16;;;7.63;74.37
77639;BME280;66802;52.574;14.398;2024-02-04T17:58:47;101129.09;;;7.65;74.37
77639;BME280;66802;52.574;14.398;2024-02-04T18:33:55;101126.28;;;7.67;74.99
77639;BME280;66802;52.574;14.398;2024-02-04T18:36:39;101125.69;;;7.63;75.40
77639;BME280;66802;52.574;14.398;2024-02-04T18:42:36;101116.63;;;7.64;75.37
77639;BME280;66802;52.574;14.398;2024-02-04T18:45:12;101114.06;;;7.63;75.66
77639;BME280;66802;52.574;14.398;2024-02-04T18:54:14;101117.22;;;7.68;75.79
77639;BME280;66802;52.574;14.398;2024-02-04T18:56:56;101116.25;;;7.69;75.76
77639;BME280;66802;52.574;14.398;2024-02-04T21:22:14;101025.56;;;7.07;89.63
77639;BME280;66802;52.574;14.398;2024-02-04T21:25:06;101030.22;;;7.05;90.56
77639;BME280;66802;52.574;14.398;2024-02-04T21:34:53;101010.22;;;6.98;91.79
77639;BME280;66802;52.574;14.398;2024-02-04T23:04:44;100943.22;;;6.53;100.00
77639;BME280;66802;52.574;14.398;2024-02-04T23:07:30;100942.75;;;6.48;100.00
77639;BME280;66802;52.574;14.398;2024-02-04T23:10:20;100941.75;;;6.49;100.00
77639;BME280;66802;52.574;14.398;2024-02-04T23:12:57;100936.53;;;6.48;100.00
77639;BME280;66802;52.574;14.398;2024-02-04T23:15:23;100922.97;;;6.49;100.00
77639;BME280;66802;52.574;14.398;2024-02-04T23:17:49;100925.94;;;6.46;100.00
77639;BME280;66802;52.574;14.398;2024-02-04T23:20:16;100921.16;;;6.50;100.00
77639;BME280;66802;52.574;14.398;2024-02-04T23:22:44;100919.94;;;6.54;100.00
77639;BME280;66802;52.574;14.398;2024-02-04T23:25:09;100925.66;;;6.49;100.00
77639;BME280;66802;52.574;14.398;2024-02-04T23:27:35;100924.44;;;6.53;100.00
77639;BME280;66802;52.574;14.398;2024-02-04T23:30:01;100919.81;;;6.44;100.00
77639;BME280;66802;52.574;14.398;2024-02-04T23:32:26;100915.09;;;6.48;100.00
77639;BME280;66802;52.574;14.398;2024-02-04T23:34:52;100913.47;;;6.56;100.00
77639;BME280;66802;52.574;14.398;2024-02-04T23:37:18;100910.19;;;6.53;100.00
77639;BME280;66802;52.574;14.398;2024-02-04T23:39:44;100901.41;;;6.51;100.00
77639;BME280;66802;52.574;14.398;2024-02-04T23:42:09;100894.09;;;6.53;100.00
77639;BME280;66802;52.574;14.398;2024-02-04T23:44:35;100886.66;;;6.56;100.00
77639;BME280;66802;52.574;14.398;2024-02-04T23:47:16;100876.16;;;6.53;100.00
77639;BME280;66802;52.574;14.398;2024-02-04T23:49:57;100873.38;;;6.55;100.00
77639;BME280;66802;52.574;14.398;2024-02-04T23:52:53;100861.78;;;6.54;100.00
77639;BME280;66802;52.574;14.398;2024-02-04T23:55:21;100856.31;;;6.56;100.00
77639;BME280;66802;52.574;14.398;2024-02-04T23:57:50;100859.84;;;6.56;100.00
